Terminal Aerodrome Forecast
Issued by NWS

Home | Current Version | Previous Version | Text Only | Print | Product List | Glossary On
Versions: 1 2 3 4 5 6 7 8 9 10 11 12 13 14 15 16
000
FTUS43 KPAH 302336
TAFCGI
TAF
KCGI 302336Z 3100/3124 VRB03KT P6SM SCT080 BKN200
     FM310700 VRB02KT 5SM BR SCT080 BKN200
      TEMPO 3108/3112 2SM BR
     FM311400 18006KT P6SM SCT040 BKN200=

USA.gov is the U.S. government's official web portal to all federal, state and local government web resources and services.